createdAt,value
2018-07-13T00:00:42.719Z,20.70
2018-07-13T00:03:11.965Z,20.70
2018-07-13T00:05:40.202Z,20.50
2018-07-13T00:08:08.460Z,20.60
2018-07-13T00:10:36.696Z,20.60
2018-07-13T00:13:05.161Z,20.50
2018-07-13T00:15:33.419Z,20.50
2018-07-13T00:18:01.780Z,20.50
2018-07-13T00:20:30.035Z,20.40
2018-07-13T00:22:58.307Z,20.30
2018-07-13T00:25:26.605Z,20.30
2018-07-13T00:27:54.847Z,20.30
2018-07-13T00:30:23.136Z,20.20
2018-07-13T00:32:52.337Z,20.30
2018-07-13T00:35:20.631Z,20.20
2018-07-13T00:37:48.863Z,20.30
2018-07-13T00:40:17.164Z,20.20
2018-07-13T00:42:45.453Z,20.10
2018-07-13T00:45:13.795Z,20.00
2018-07-13T00:47:42.028Z,20.00
2018-07-13T00:50:10.297Z,20.00
2018-07-13T00:52:38.588Z,19.90
2018-07-13T00:55:06.983Z,19.90
2018-07-13T00:57:35.218Z,19.80
2018-07-13T01:00:04.105Z,19.90
2018-07-13T01:02:32.867Z,19.90
2018-07-13T01:05:01.193Z,19.90
2018-07-13T01:09:57.378Z,19.80
2018-07-13T01:12:25.643Z,19.80
2018-07-13T01:14:53.944Z,19.80
2018-07-13T01:17:22.943Z,19.70
2018-07-13T01:19:51.236Z,19.70
2018-07-13T01:22:19.465Z,19.70
2018-07-13T01:24:50.964Z,19.70
2018-07-13T01:27:19.242Z,19.70
2018-07-13T01:29:47.485Z,19.70
2018-07-13T01:32:15.744Z,19.60
2018-07-13T01:34:43.984Z,19.60
2018-07-13T01:37:12.230Z,19.50
2018-07-13T01:39:40.569Z,19.60
2018-07-13T01:42:08.814Z,19.50
2018-07-13T01:44:37.081Z,19.50
2018-07-13T01:47:05.292Z,19.30
2018-07-13T01:49:33.563Z,19.40
2018-07-13T01:52:01.789Z,19.40
2018-07-13T01:54:30.055Z,19.30
2018-07-13T01:56:58.335Z,19.30
2018-07-13T01:59:26.626Z,19.30
2018-07-13T02:01:54.870Z,19.30
2018-07-13T02:04:23.103Z,19.30
2018-07-13T02:06:51.483Z,19.20
2018-07-13T02:09:19.736Z,19.20
2018-07-13T02:11:48.011Z,19.10
2018-07-13T02:14:16.270Z,19.10
2018-07-13T02:16:44.541Z,19.10
2018-07-13T02:19:12.803Z,19.10
2018-07-13T02:21:41.072Z,19.10
2018-07-13T02:24:09.391Z,19.00
2018-07-13T02:26:37.648Z,19.10
2018-07-13T02:29:06.162Z,19.10
2018-07-13T02:31:34.383Z,19.10
2018-07-13T02:34:02.672Z,19.00
2018-07-13T02:36:31.027Z,19.10
2018-07-13T02:38:59.345Z,19.00
2018-07-13T02:41:27.512Z,18.90
2018-07-13T02:43:55.771Z,18.80
2018-07-13T02:46:24.086Z,18.70
2018-07-13T02:48:52.492Z,18.80
2018-07-13T02:51:20.735Z,18.80
2018-07-13T02:53:49.003Z,18.80
2018-07-13T02:56:17.250Z,18.80
2018-07-13T02:58:45.498Z,18.80
2018-07-13T03:01:13.769Z,18.70
2018-07-13T03:03:42.000Z,18.70
2018-07-13T03:06:10.403Z,18.60
2018-07-13T03:08:38.747Z,18.70
2018-07-13T03:11:07.123Z,18.70
2018-07-13T03:13:35.411Z,18.60
2018-07-13T03:16:03.738Z,18.60
2018-07-13T03:18:32.070Z,18.60
2018-07-13T03:21:00.532Z,18.60
2018-07-13T03:23:28.801Z,18.60
2018-07-13T03:25:57.121Z,18.50
2018-07-13T03:28:25.372Z,18.50
2018-07-13T03:30:53.647Z,18.50
2018-07-13T03:33:21.954Z,18.50
2018-07-13T03:38:18.246Z,18.40
2018-07-13T03:40:46.448Z,18.40
2018-07-13T03:43:14.768Z,18.40
2018-07-13T03:45:43.045Z,18.40
2018-07-13T03:48:11.375Z,18.50
2018-07-13T03:50:39.716Z,18.40
2018-07-13T03:53:07.960Z,18.40
2018-07-13T03:55:36.203Z,18.30
2018-07-13T03:58:04.503Z,18.30
2018-07-13T04:00:32.831Z,18.40
2018-07-13T04:03:01.116Z,18.40
2018-07-13T04:05:29.371Z,18.40
2018-07-13T04:07:57.719Z,18.40
2018-07-13T04:12:53.988Z,18.50
2018-07-13T04:15:22.260Z,18.50
2018-07-13T04:17:50.582Z,18.50
2018-07-13T04:20:18.893Z,18.30
2018-07-13T04:22:47.223Z,18.30
2018-07-13T04:25:15.560Z,18.40
2018-07-13T04:27:44.286Z,18.40
2018-07-13T04:30:12.555Z,18.50
2018-07-13T04:32:40.873Z,18.50
2018-07-13T04:35:09.142Z,18.60
2018-07-13T04:37:37.423Z,18.60
2018-07-13T04:40:05.714Z,18.70
2018-07-13T04:42:34.010Z,18.70
2018-07-13T04:45:02.280Z,18.70
2018-07-13T04:47:30.539Z,18.70
2018-07-13T04:49:58.860Z,18.70
2018-07-13T04:52:27.148Z,18.60
2018-07-13T04:54:55.407Z,18.60
2018-07-13T04:57:23.702Z,18.60
2018-07-13T04:59:52.006Z,18.60
2018-07-13T05:02:20.372Z,18.70
2018-07-13T05:04:48.589Z,18.90
2018-07-13T05:07:16.887Z,18.90
2018-07-13T05:09:45.190Z,19.00
2018-07-13T05:12:13.498Z,19.10
2018-07-13T05:14:41.767Z,19.20
2018-07-13T05:17:10.049Z,19.20
2018-07-13T05:19:38.580Z,19.10
2018-07-13T05:22:06.975Z,18.90
2018-07-13T05:24:35.270Z,19.00
2018-07-13T05:27:03.713Z,19.00
2018-07-13T05:29:32.026Z,19.10
2018-07-13T05:32:00.315Z,19.10
2018-07-13T05:34:28.576Z,19.20
2018-07-13T05:36:56.876Z,19.30
2018-07-13T05:39:25.135Z,19.40
2018-07-13T05:41:53.422Z,19.40
2018-07-13T05:44:21.700Z,19.50
2018-07-13T05:46:49.994Z,19.70
2018-07-13T05:51:46.523Z,19.70
2018-07-13T05:54:15.062Z,19.70
2018-07-13T05:56:43.400Z,19.60
2018-07-13T05:59:11.647Z,19.80
2018-07-13T06:01:39.958Z,20.00
2018-07-13T06:06:39.924Z,20.20
2018-07-13T06:09:10.128Z,20.10
2018-07-13T06:11:38.709Z,20.20
2018-07-13T06:14:07.149Z,20.30
2018-07-13T06:16:35.762Z,20.30
2018-07-13T06:19:04.078Z,20.40
2018-07-13T06:21:32.364Z,20.30
2018-07-13T06:24:00.921Z,20.30
2018-07-13T06:26:29.345Z,20.40
2018-07-13T06:28:57.622Z,20.50
2018-07-13T06:31:25.918Z,20.60
2018-07-13T06:33:54.162Z,20.60
2018-07-13T06:36:22.549Z,20.60
2018-07-13T06:38:57.232Z,20.90
2018-07-13T06:41:25.575Z,21.10
2018-07-13T06:43:53.848Z,21.20
2018-07-13T06:46:22.130Z,21.30
2018-07-13T06:51:18.620Z,21.40
2018-07-13T06:53:46.903Z,21.70
2018-07-13T06:56:15.167Z,22.30
2018-07-13T06:59:16.845Z,22.60
2018-07-13T07:01:45.737Z,23.00
2018-07-13T07:04:37.240Z,23.50
2018-07-13T07:07:10.052Z,23.90
2018-07-13T07:09:39.348Z,24.60
2018-07-13T07:13:18.174Z,25.20
2018-07-13T07:15:46.394Z,25.90
2018-07-13T07:20:42.671Z,25.80
2018-07-13T07:23:10.953Z,25.40
2018-07-13T07:25:39.239Z,26.00
2018-07-13T07:28:07.540Z,26.60
2018-07-13T07:30:35.954Z,26.70
2018-07-13T07:33:04.226Z,27.10
2018-07-13T07:40:28.476Z,27.40
2018-07-13T07:42:56.747Z,27.10
2018-07-13T07:45:25.088Z,26.90
2018-07-13T07:47:53.373Z,27.40
2018-07-13T07:50:22.569Z,28.50
2018-07-13T07:52:50.970Z,28.10
2018-07-13T07:55:19.656Z,27.90
2018-07-13T07:57:47.928Z,28.70
2018-07-13T08:00:16.196Z,28.60
2018-07-13T08:02:44.471Z,29.70
2018-07-13T08:05:12.830Z,29.70
2018-07-13T08:07:41.195Z,29.60
2018-07-13T08:10:09.414Z,29.50
2018-07-13T08:12:37.724Z,29.80
2018-07-13T08:15:06.022Z,30.40
2018-07-13T08:17:34.278Z,30.00
2018-07-13T08:20:02.916Z,30.80
2018-07-13T08:22:33.175Z,31.20
2018-07-13T08:25:02.368Z,31.60
2018-07-13T08:27:44.478Z,31.10
2018-07-13T08:30:17.712Z,31.70
2018-07-13T08:32:46.520Z,31.60
2018-07-13T08:35:15.234Z,31.30
2018-07-13T08:37:43.546Z,31.70
2018-07-13T08:40:11.894Z,31.50
2018-07-13T08:42:40.549Z,32.10
2018-07-13T08:45:09.063Z,33.30
2018-07-13T08:47:37.323Z,33.50
2018-07-13T08:50:05.736Z,32.60
2018-07-13T08:52:34.902Z,32.80
2018-07-13T08:55:08.129Z,33.50
2018-07-13T08:57:36.435Z,33.60
2018-07-13T09:00:05.117Z,34.10
2018-07-13T09:05:01.792Z,34.20
2018-07-13T09:07:31.163Z,34.50
2018-07-13T09:09:59.819Z,35.20
2018-07-13T09:12:28.628Z,35.90
2018-07-13T09:14:56.933Z,36.30
2018-07-13T09:17:25.228Z,35.50
2018-07-13T09:19:53.626Z,36.00
2018-07-13T09:22:22.594Z,36.80
2018-07-13T09:24:50.828Z,35.60
2018-07-13T09:27:19.155Z,35.20
2018-07-13T09:29:47.549Z,35.70
2018-07-13T09:32:16.003Z,36.10
2018-07-13T09:34:44.247Z,35.20
2018-07-13T09:37:12.528Z,35.40
2018-07-13T09:44:36.861Z,36.10
2018-07-13T09:49:33.212Z,36.70
2018-07-13T09:52:01.542Z,36.40
2018-07-13T09:54:29.822Z,36.70
2018-07-13T09:56:58.156Z,37.30
2018-07-13T09:59:26.680Z,37.90
2018-07-13T10:01:55.519Z,38.10
2018-07-13T10:04:23.846Z,37.20
2018-07-13T10:06:52.733Z,36.00
2018-07-13T10:09:21.146Z,35.20
2018-07-13T10:14:17.761Z,38.60
2018-07-13T10:16:46.029Z,38.00
2018-07-13T10:19:14.333Z,36.50
2018-07-13T10:21:44.074Z,37.80
2018-07-13T10:24:15.631Z,38.50
2018-07-13T10:26:44.000Z,39.00
2018-07-13T10:29:17.689Z,37.40
2018-07-13T10:31:46.052Z,38.50
2018-07-13T10:34:16.579Z,39.20
2018-07-13T10:36:54.636Z,38.60
2018-07-13T10:39:23.263Z,39.20
2018-07-13T10:41:52.308Z,39.00
2018-07-13T10:44:20.663Z,40.00
2018-07-13T10:46:49.102Z,40.60
2018-07-13T10:49:17.596Z,40.50
2018-07-13T10:51:46.457Z,40.50
2018-07-13T10:54:15.169Z,40.40
2018-07-13T10:56:43.476Z,38.70
2018-07-13T10:59:11.790Z,37.30
2018-07-13T11:01:40.417Z,38.40
2018-07-13T11:04:09.270Z,38.90
2018-07-13T11:06:37.571Z,38.60
2018-07-13T11:09:06.751Z,37.40
2018-07-13T11:11:35.192Z,37.30
2018-07-13T11:14:04.765Z,37.80
2018-07-13T11:16:33.178Z,37.20
2018-07-13T11:19:01.859Z,38.20
2018-07-13T11:21:30.208Z,37.80
2018-07-13T11:23:58.916Z,37.80
2018-07-13T11:26:27.212Z,37.90
2018-07-13T11:28:55.568Z,37.60
2018-07-13T11:31:23.822Z,38.70
2018-07-13T11:33:52.135Z,39.60
2018-07-13T11:36:20.411Z,40.30
2018-07-13T11:38:48.748Z,40.10
2018-07-13T11:41:17.065Z,40.60
2018-07-13T11:46:14.261Z,39.60
2018-07-13T11:48:42.548Z,38.80
2018-07-13T11:51:11.052Z,39.00
2018-07-13T11:53:45.887Z,39.10
2018-07-13T11:56:14.656Z,39.10
2018-07-13T11:58:43.005Z,38.80
2018-07-13T12:01:11.266Z,37.70
2018-07-13T12:03:39.545Z,39.10
2018-07-13T12:06:08.286Z,40.00
2018-07-13T12:08:36.594Z,39.60
2018-07-13T12:11:04.928Z,41.10
2018-07-13T12:13:33.212Z,41.20
2018-07-13T12:16:01.487Z,41.10
2018-07-13T12:18:29.799Z,40.00
2018-07-13T12:23:26.542Z,38.00
2018-07-13T12:26:01.392Z,37.60
2018-07-13T12:30:57.711Z,40.30
2018-07-13T12:33:25.956Z,38.80
2018-07-13T12:35:54.363Z,38.00
2018-07-13T12:38:22.616Z,37.70
2018-07-13T12:40:50.880Z,38.30
2018-07-13T12:43:19.167Z,39.00
2018-07-13T12:45:47.468Z,39.90
2018-07-13T12:48:15.765Z,39.50
2018-07-13T12:50:44.076Z,38.50
2018-07-13T12:53:12.384Z,39.50
2018-07-13T12:55:40.683Z,39.80
2018-07-13T12:58:09.054Z,39.90
2018-07-13T13:00:40.376Z,38.60
2018-07-13T13:03:08.715Z,38.80
2018-07-13T13:05:37.081Z,37.10
2018-07-13T13:08:05.547Z,36.10
2018-07-13T13:10:34.324Z,35.10
2018-07-13T13:13:02.602Z,34.90
2018-07-13T13:15:30.880Z,34.10
2018-07-13T13:17:59.177Z,34.30
2018-07-13T13:20:27.514Z,34.30
2018-07-13T13:22:55.811Z,34.50
2018-07-13T13:25:24.030Z,34.40
2018-07-13T13:27:53.235Z,34.00
2018-07-13T13:30:21.562Z,33.40
2018-07-13T13:32:49.831Z,33.20
2018-07-13T13:35:18.122Z,32.90
2018-07-13T13:37:46.359Z,33.20
2018-07-13T13:40:14.653Z,33.00
2018-07-13T13:42:46.141Z,32.90
2018-07-13T13:45:14.376Z,33.20
2018-07-13T13:47:42.764Z,32.60
2018-07-13T13:50:11.036Z,32.50
2018-07-13T13:52:39.352Z,32.90
2018-07-13T13:57:36.123Z,33.50
2018-07-13T14:00:04.850Z,33.40
2018-07-13T14:02:33.268Z,33.00
2018-07-13T14:07:29.640Z,32.50
2018-07-13T14:09:57.911Z,32.50
2018-07-13T14:12:26.326Z,32.80
2018-07-13T14:14:54.714Z,32.90
2018-07-13T14:19:50.878Z,32.50
2018-07-13T14:22:19.164Z,32.40
2018-07-13T14:24:47.566Z,32.20
2018-07-13T14:27:15.855Z,31.60
2018-07-13T14:29:44.138Z,31.80
2018-07-13T14:32:12.410Z,32.00
2018-07-13T14:34:40.708Z,31.90
2018-07-13T14:37:09.045Z,31.70
2018-07-13T14:39:37.355Z,31.60
2018-07-13T14:42:05.626Z,31.60
2018-07-13T14:44:33.899Z,32.00
2018-07-13T14:47:02.217Z,32.10
2018-07-13T14:49:32.149Z,31.90
2018-07-13T14:52:00.415Z,31.70
2018-07-13T14:54:28.742Z,31.60
2018-07-13T14:56:56.981Z,31.50
2018-07-13T14:59:25.291Z,31.60
2018-07-13T15:01:53.751Z,31.90
2018-07-13T15:06:50.450Z,31.60
2018-07-13T15:11:46.609Z,31.90
2018-07-13T15:14:14.970Z,31.70
2018-07-13T15:16:43.274Z,32.00
2018-07-13T15:19:11.538Z,31.60
2018-07-13T15:21:39.802Z,31.50
2018-07-13T15:24:08.095Z,31.40
2018-07-13T15:26:36.368Z,31.50
2018-07-13T15:29:04.726Z,31.50
2018-07-13T15:31:32.971Z,31.50
2018-07-13T15:34:01.211Z,31.40
2018-07-13T15:36:29.496Z,31.30
2018-07-13T15:38:57.716Z,31.10
2018-07-13T15:41:25.963Z,30.90
2018-07-13T15:43:54.199Z,30.70
2018-07-13T15:46:22.549Z,30.60
2018-07-13T15:48:51.056Z,30.80
2018-07-13T15:51:19.346Z,30.80
2018-07-13T15:53:47.587Z,31.10
2018-07-13T15:56:15.903Z,31.20
2018-07-13T15:58:44.410Z,31.20
2018-07-13T16:01:12.499Z,31.10
2018-07-13T16:03:40.870Z,31.00
2018-07-13T16:06:09.266Z,31.20
2018-07-13T16:08:37.647Z,31.10
2018-07-13T16:11:06.041Z,31.20
2018-07-13T16:13:35.351Z,31.10
2018-07-13T16:16:03.655Z,31.20
2018-07-13T16:18:31.892Z,31.30
2018-07-13T16:21:00.210Z,31.10
2018-07-13T16:23:28.446Z,31.00
2018-07-13T16:25:57.550Z,31.00
2018-07-13T16:28:25.835Z,31.00
2018-07-13T16:30:54.049Z,30.90
2018-07-13T16:33:22.327Z,31.00
2018-07-13T16:35:50.621Z,31.10
2018-07-13T16:38:19.058Z,31.10
2018-07-13T16:40:47.380Z,31.20
2018-07-13T16:43:15.655Z,31.30
2018-07-13T16:45:44.014Z,31.30
2018-07-13T16:48:12.260Z,31.20
2018-07-13T16:50:40.619Z,31.40
2018-07-13T16:53:08.838Z,31.30
2018-07-13T16:55:37.066Z,31.20
2018-07-13T16:58:05.295Z,31.20
2018-07-13T17:00:33.558Z,30.90
2018-07-13T17:03:01.872Z,30.30
2018-07-13T17:05:31.107Z,30.20
2018-07-13T17:07:59.401Z,30.40
2018-07-13T17:10:27.819Z,30.40
2018-07-13T17:12:56.187Z,30.30
2018-07-13T17:15:24.690Z,29.90
2018-07-13T17:17:52.966Z,30.00
2018-07-13T17:20:21.431Z,30.00
2018-07-13T17:25:17.734Z,30.00
2018-07-13T17:27:46.064Z,30.00
2018-07-13T17:30:14.447Z,30.00
2018-07-13T17:32:42.923Z,29.60
2018-07-13T17:35:11.673Z,29.50
2018-07-13T17:37:39.967Z,29.60
2018-07-13T17:40:08.255Z,29.40
2018-07-13T17:42:36.694Z,29.30
2018-07-13T17:52:29.472Z,28.90
2018-07-13T17:54:57.755Z,29.00
2018-07-13T17:57:26.001Z,28.90
2018-07-13T17:59:54.222Z,29.00
2018-07-13T18:02:22.472Z,29.20
2018-07-13T18:04:50.871Z,29.20
2018-07-13T18:07:19.252Z,29.10
2018-07-13T18:09:47.479Z,29.00
2018-07-13T18:12:15.848Z,28.80
2018-07-13T18:14:44.195Z,28.70
2018-07-13T18:19:40.508Z,28.70
2018-07-13T18:22:08.918Z,28.80
2018-07-13T18:27:05.475Z,28.60
2018-07-13T18:29:33.728Z,28.60
2018-07-13T18:32:02.059Z,28.40
2018-07-13T18:34:30.311Z,28.50
2018-07-13T18:36:58.644Z,28.40
2018-07-13T18:39:26.983Z,28.40
2018-07-13T18:41:55.335Z,28.30
2018-07-13T18:46:52.480Z,28.20
2018-07-13T18:49:20.810Z,28.10
2018-07-13T18:51:49.127Z,28.00
2018-07-13T18:56:46.224Z,27.90
2018-07-13T19:01:44.800Z,28.00
2018-07-13T19:04:13.371Z,28.00
2018-07-13T19:06:41.932Z,27.90
2018-07-13T19:09:12.041Z,27.80
2018-07-13T19:11:41.392Z,27.80
2018-07-13T19:14:10.303Z,27.70
2018-07-13T19:16:38.591Z,27.60
2018-07-13T19:19:06.903Z,27.70
2018-07-13T19:21:35.187Z,27.60
2018-07-13T19:24:03.507Z,27.50
2018-07-13T19:28:59.836Z,27.30
2018-07-13T19:31:28.127Z,27.30
2018-07-13T19:33:56.429Z,27.10
2018-07-13T19:36:24.721Z,27.00
2018-07-13T19:38:53.006Z,27.00
2018-07-13T19:41:21.280Z,26.90
2018-07-13T19:43:49.564Z,26.80
2018-07-13T19:46:17.860Z,26.70
2018-07-13T19:48:46.435Z,26.60
2018-07-13T19:51:14.804Z,26.60
2018-07-13T19:53:43.114Z,26.40
2018-07-13T19:56:11.533Z,26.30
2018-07-13T19:58:39.840Z,26.20
2018-07-13T20:01:08.130Z,26.10
2018-07-13T20:03:36.411Z,26.00
2018-07-13T20:06:04.677Z,26.00
2018-07-13T20:08:32.996Z,25.90
2018-07-13T20:11:01.286Z,25.90
2018-07-13T20:13:29.523Z,25.70
2018-07-13T20:15:57.799Z,25.70
2018-07-13T20:18:26.039Z,25.70
2018-07-13T20:20:54.315Z,25.60
2018-07-13T20:23:22.618Z,25.50
2018-07-13T20:25:50.863Z,25.40
2018-07-13T20:28:19.226Z,25.30
2018-07-13T20:30:47.547Z,25.10
2018-07-13T20:33:15.835Z,25.10
2018-07-13T20:35:44.081Z,25.00
2018-07-13T20:38:12.352Z,24.90
2018-07-13T20:40:40.588Z,24.90
2018-07-13T20:43:08.846Z,24.90
2018-07-13T20:45:37.102Z,24.80
2018-07-13T20:48:05.412Z,24.80
2018-07-13T20:50:33.908Z,24.70
2018-07-13T20:53:02.205Z,24.70
2018-07-13T20:55:30.619Z,24.70
2018-07-13T20:57:58.978Z,24.50
2018-07-13T21:00:27.263Z,24.50
2018-07-13T21:02:55.767Z,24.40
2018-07-13T21:05:24.046Z,24.40
2018-07-13T21:07:52.306Z,24.30
2018-07-13T21:10:20.654Z,24.20
2018-07-13T21:12:48.971Z,24.10
2018-07-13T21:15:17.229Z,24.10
2018-07-13T21:17:45.702Z,24.00
2018-07-13T21:20:14.105Z,24.00
2018-07-13T21:22:42.284Z,24.00
2018-07-13T21:27:38.979Z,24.00
2018-07-13T21:30:07.743Z,24.00
2018-07-13T21:32:36.066Z,23.90
2018-07-13T21:35:04.361Z,23.90
2018-07-13T21:37:32.663Z,23.80
2018-07-13T21:40:01.053Z,23.70
2018-07-13T21:42:29.323Z,23.70
2018-07-13T21:49:54.110Z,23.50
2018-07-13T21:52:22.502Z,23.50
2018-07-13T21:54:50.943Z,23.40
2018-07-13T21:57:19.298Z,23.40
2018-07-13T21:59:47.603Z,23.40
2018-07-13T22:02:15.932Z,23.40
2018-07-13T22:04:44.396Z,23.40
2018-07-13T22:09:40.803Z,23.20
2018-07-13T22:12:09.081Z,23.10
2018-07-13T22:14:37.470Z,23.00
2018-07-13T22:17:05.768Z,22.80
2018-07-13T22:19:33.972Z,22.80
2018-07-13T22:24:30.214Z,22.70
2018-07-13T22:31:54.512Z,22.60
2018-07-13T22:34:22.761Z,22.70
2018-07-13T22:36:51.031Z,22.60
2018-07-13T22:39:19.375Z,22.60
2018-07-13T22:41:47.626Z,22.60
2018-07-13T22:44:16.148Z,22.50
2018-07-13T22:46:44.461Z,22.40
2018-07-13T22:49:12.741Z,22.30
2018-07-13T22:51:41.003Z,22.30
2018-07-13T22:54:09.360Z,22.30
2018-07-13T22:56:37.608Z,22.30
2018-07-13T23:01:33.838Z,22.20
2018-07-13T23:04:02.598Z,22.20
2018-07-13T23:06:30.871Z,22.20
2018-07-13T23:08:59.144Z,22.10
2018-07-13T23:11:27.370Z,22.20
2018-07-13T23:13:55.614Z,22.20
2018-07-13T23:16:23.927Z,22.20
2018-07-13T23:18:52.221Z,22.30
2018-07-13T23:21:20.647Z,22.10
2018-07-13T23:23:48.964Z,22.10
2018-07-13T23:26:17.196Z,22.10
2018-07-13T23:28:45.473Z,22.10
2018-07-13T23:31:13.690Z,22.00
2018-07-13T23:33:42.017Z,21.90
2018-07-13T23:36:10.296Z,21.90
2018-07-13T23:38:38.556Z,21.80
2018-07-13T23:41:06.900Z,21.80
2018-07-13T23:43:35.125Z,21.70
2018-07-13T23:46:03.444Z,21.70
2018-07-13T23:48:31.681Z,21.60
2018-07-13T23:50:59.983Z,21.60
2018-07-13T23:53:28.247Z,21.70
2018-07-13T23:55:56.471Z,21.60
2018-07-13T23:58:24.751Z,21.40
